createdAt,value
2017-10-09T00:01:04.176Z,11.31
2017-10-09T00:06:03.948Z,11.31
2017-10-09T00:11:04.163Z,11.33
2017-10-09T00:16:03.949Z,11.31
2017-10-09T00:21:06.775Z,11.31
2017-10-09T00:26:03.884Z,11.28
2017-10-09T00:31:03.596Z,11.42
2017-10-09T00:36:04.320Z,11.28
2017-10-09T00:41:03.518Z,11.26
2017-10-09T00:46:04.327Z,11.26
2017-10-09T00:51:04.045Z,11.38
2017-10-09T00:56:03.799Z,11.26
2017-10-09T01:01:03.570Z,11.35
2017-10-09T01:06:04.355Z,11.38
2017-10-09T01:11:03.550Z,11.26
2017-10-09T01:16:04.329Z,11.28
2017-10-09T01:21:04.174Z,11.28
2017-10-09T01:26:03.929Z,11.28
2017-10-09T01:31:03.720Z,11.28
2017-10-09T01:36:03.395Z,11.28
2017-10-09T01:41:03.580Z,11.28
2017-10-09T01:46:04.296Z,11.28
2017-10-09T01:51:04.131Z,11.26
2017-10-09T01:56:03.902Z,11.26
2017-10-09T02:01:03.614Z,11.26
2017-10-09T02:06:04.365Z,11.26
2017-10-09T02:11:03.472Z,11.24
2017-10-09T02:16:04.201Z,11.24
2017-10-09T02:21:04.089Z,11.35
2017-10-09T02:26:03.877Z,11.24
2017-10-09T02:31:03.608Z,11.24
2017-10-09T02:36:03.428Z,11.24
2017-10-09T02:41:03.639Z,11.26
2017-10-09T02:46:04.371Z,11.26
2017-10-09T02:51:04.079Z,11.26
2017-10-09T02:56:03.916Z,11.26
2017-10-09T03:01:03.661Z,11.26
2017-10-09T03:06:03.406Z,11.24
2017-10-09T03:11:03.602Z,11.24
2017-10-09T03:16:04.786Z,11.24
2017-10-09T03:21:04.163Z,11.24
2017-10-09T03:26:03.969Z,11.24
2017-10-09T03:31:03.720Z,11.24
2017-10-09T03:36:03.450Z,11.24
2017-10-09T03:41:03.621Z,11.24
2017-10-09T03:46:04.352Z,11.24
2017-10-09T03:51:04.187Z,11.24
2017-10-09T03:56:03.943Z,11.21
2017-10-09T04:01:03.679Z,11.21
2017-10-09T04:06:03.444Z,11.21
2017-10-09T04:11:03.603Z,11.19
2017-10-09T04:16:04.341Z,11.19
2017-10-09T04:21:04.204Z,11.19
2017-10-09T04:26:03.565Z,11.21
2017-10-09T04:31:04.346Z,11.21
2017-10-09T04:36:04.119Z,11.21
2017-10-09T04:41:04.380Z,11.21
2017-10-09T04:46:04.172Z,11.21
2017-10-09T04:51:03.957Z,11.21
2017-10-09T04:56:03.744Z,11.21
2017-10-09T05:01:03.513Z,11.21
2017-10-09T05:06:04.329Z,11.24
2017-10-09T05:11:03.482Z,11.04
2017-10-09T05:16:04.244Z,11.04
2017-10-09T05:21:04.081Z,11.04
2017-10-09T05:26:03.877Z,11.07
2017-10-09T05:31:03.582Z,11.09
2017-10-09T05:36:04.389Z,11.09
2017-10-09T05:41:03.585Z,11.09
2017-10-09T05:46:04.382Z,11.09
2017-10-09T05:51:04.053Z,11.09
2017-10-09T05:56:03.852Z,11.12
2017-10-09T06:01:03.729Z,11.12
2017-10-09T06:06:03.542Z,11.12
2017-10-09T06:11:03.678Z,11.14
2017-10-09T06:16:03.490Z,11.14
2017-10-09T06:21:04.338Z,11.14
2017-10-09T06:26:04.298Z,11.14
2017-10-09T06:31:04.041Z,11.14
2017-10-09T06:36:03.779Z,11.14
2017-10-09T06:41:03.965Z,11.14
2017-10-09T06:46:03.739Z,11.16
2017-10-09T06:51:03.486Z,11.16
2017-10-09T06:56:04.283Z,11.16
2017-10-09T07:01:04.016Z,11.16
2017-10-09T07:06:03.784Z,11.16
2017-10-09T07:11:03.949Z,11.16
2017-10-09T07:16:03.701Z,11.16
2017-10-09T07:21:03.553Z,11.16
2017-10-09T07:26:04.312Z,11.16
2017-10-09T07:31:04.068Z,11.16
2017-10-09T07:36:03.841Z,11.16
2017-10-09T07:41:03.974Z,11.16
2017-10-09T07:46:03.755Z,11.16
2017-10-09T07:51:03.517Z,11.16
2017-10-09T07:56:04.229Z,11.16
2017-10-09T08:01:03.996Z,11.16
2017-10-09T08:06:03.762Z,11.16
2017-10-09T08:11:03.972Z,11.16
2017-10-09T08:16:03.765Z,11.16
2017-10-09T08:21:03.515Z,11.12
2017-10-09T08:26:04.261Z,11.09
2017-10-09T08:31:04.084Z,11.09
2017-10-09T08:36:03.819Z,11.12
2017-10-09T08:41:04.009Z,11.14
2017-10-09T08:46:03.825Z,11.14
2017-10-09T08:51:03.608Z,11.14
2017-10-09T08:56:03.366Z,11.14
2017-10-09T09:01:04.165Z,11.05
2017-10-09T09:06:03.869Z,11.14
2017-10-09T09:11:03.990Z,11.05
2017-10-09T09:16:03.795Z,11.16
2017-10-09T09:21:03.761Z,11.16
2017-10-09T09:26:03.472Z,11.16
2017-10-09T09:31:04.255Z,11.16
2017-10-09T09:36:03.986Z,11.16
2017-10-09T09:41:04.211Z,11.16
2017-10-09T09:46:04.003Z,11.16
2017-10-09T09:51:03.773Z,11.16
2017-10-09T09:56:03.532Z,11.16
2017-10-09T10:01:04.287Z,11.19
2017-10-09T10:06:04.052Z,11.16
2017-10-09T10:11:04.234Z,11.16
2017-10-09T10:16:04.043Z,11.16
2017-10-09T10:21:03.865Z,11.19
2017-10-09T10:26:03.573Z,11.19
2017-10-09T10:31:04.374Z,11.19
2017-10-09T10:36:04.129Z,11.19
2017-10-09T10:41:04.368Z,11.19
2017-10-09T10:46:04.145Z,11.19
2017-10-09T10:51:03.881Z,11.07
2017-10-09T10:56:03.620Z,11.19
2017-10-09T11:01:03.752Z,11.21
2017-10-09T11:06:03.496Z,11.09
2017-10-09T11:11:03.710Z,11.21
2017-10-09T11:16:03.483Z,11.09
2017-10-09T11:21:04.497Z,11.09
2017-10-09T11:26:04.121Z,11.09
2017-10-09T11:31:03.860Z,11.09
2017-10-09T11:36:03.696Z,11.09
2017-10-09T11:41:03.932Z,11.09
2017-10-09T11:46:03.733Z,11.09
2017-10-09T11:51:03.523Z,11.09
2017-10-09T11:56:04.297Z,11.21
2017-10-09T12:01:04.017Z,11.21
2017-10-09T12:06:03.844Z,11.19
2017-10-09T12:11:04.078Z,11.21
2017-10-09T12:16:05.262Z,11.19
2017-10-09T12:21:06.005Z,11.19
2017-10-09T12:26:05.914Z,11.19
2017-10-09T12:31:10.460Z,11.19
2017-10-09T12:36:08.376Z,11.21
2017-10-09T12:41:05.989Z,11.21
2017-10-09T12:46:06.879Z,11.21
2017-10-09T12:51:05.492Z,11.21
2017-10-09T12:56:06.005Z,11.38
2017-10-09T13:01:05.948Z,11.21
2017-10-09T13:06:05.708Z,11.21
2017-10-09T13:11:07.296Z,11.19
2017-10-09T13:16:06.006Z,11.19
2017-10-09T13:21:05.971Z,11.19
2017-10-09T13:26:05.734Z,11.19
2017-10-09T13:31:05.659Z,11.19
2017-10-09T13:36:04.342Z,11.19
2017-10-09T13:41:04.032Z,11.09
2017-10-09T13:46:03.830Z,11.21
2017-10-09T13:51:03.749Z,11.09
2017-10-09T13:56:03.906Z,11.21
2017-10-09T14:01:04.351Z,11.21
2017-10-09T14:06:04.138Z,11.09
2017-10-09T14:11:04.305Z,11.09
2017-10-09T14:16:04.003Z,11.09
2017-10-09T14:21:03.902Z,11.12
2017-10-09T14:26:03.694Z,11.24
2017-10-09T14:31:03.441Z,11.24
2017-10-09T14:41:04.202Z,11.12
2017-10-09T14:46:03.637Z,11.12
2017-10-09T14:51:05.090Z,11.09
2017-10-09T14:56:04.821Z,11.12
2017-10-09T15:01:04.128Z,11.12
2017-10-09T15:06:03.905Z,11.24
2017-10-09T15:11:04.137Z,11.12
2017-10-09T15:16:04.023Z,11.12
2017-10-09T15:21:03.828Z,11.24
2017-10-09T15:26:03.639Z,11.12
2017-10-09T15:31:05.495Z,11.12
2017-10-09T15:36:03.906Z,11.24
2017-10-09T15:41:05.883Z,11.21
2017-10-09T15:46:04.483Z,11.21
2017-10-09T15:51:04.154Z,11.16
2017-10-09T15:56:03.876Z,11.16
2017-10-09T16:01:03.651Z,11.19
2017-10-09T16:06:03.476Z,11.21
2017-10-09T16:11:03.680Z,11.21
2017-10-09T16:16:03.455Z,11.21
2017-10-09T16:21:04.298Z,11.21
2017-10-09T16:26:04.059Z,11.21
2017-10-09T16:31:03.804Z,11.21
2017-10-09T16:36:03.588Z,11.24
2017-10-09T16:41:03.772Z,11.24
2017-10-09T16:46:03.551Z,11.24
2017-10-09T16:51:04.319Z,11.24
2017-10-09T16:56:04.111Z,11.24
2017-10-09T17:01:03.854Z,11.24
2017-10-09T17:06:03.711Z,11.24
2017-10-09T17:11:03.942Z,11.24
2017-10-09T17:16:03.970Z,11.24
2017-10-09T17:21:03.756Z,11.24
2017-10-09T17:26:03.643Z,11.26
2017-10-09T17:31:03.476Z,11.12
2017-10-09T17:36:04.181Z,11.26
2017-10-09T17:41:03.510Z,11.26
2017-10-09T17:46:04.272Z,11.26
2017-10-09T17:51:04.067Z,11.26
2017-10-09T17:56:03.823Z,11.26
2017-10-09T18:01:03.824Z,11.26
2017-10-09T18:06:03.791Z,11.26
2017-10-09T18:11:04.600Z,11.28
2017-10-09T18:16:04.856Z,11.28
2017-10-09T18:21:03.619Z,11.17
2017-10-09T18:26:04.755Z,11.17
2017-10-09T18:31:03.830Z,11.26
2017-10-09T18:36:05.177Z,11.26
2017-10-09T18:41:05.196Z,11.26
2017-10-09T18:46:05.068Z,11.28
2017-10-09T18:51:05.832Z,11.28
2017-10-09T18:56:05.482Z,11.28
2017-10-09T19:01:05.358Z,11.24
2017-10-09T19:06:04.927Z,11.26
2017-10-09T19:11:12.375Z,11.28
2017-10-09T19:16:08.483Z,11.28
2017-10-09T19:21:04.061Z,11.28
2017-10-09T19:26:06.038Z,11.28
2017-10-09T19:31:04.012Z,11.28
2017-10-09T19:36:03.726Z,11.28
2017-10-09T19:41:03.931Z,11.28
2017-10-09T19:46:03.832Z,11.28
2017-10-09T19:51:03.600Z,11.28
2017-10-09T19:56:04.617Z,11.28
2017-10-09T20:01:04.262Z,11.31
2017-10-09T20:06:04.577Z,11.28
2017-10-09T20:11:04.265Z,11.28
2017-10-09T20:16:04.379Z,11.28
2017-10-09T20:21:04.317Z,11.26
2017-10-09T20:26:04.019Z,11.26
2017-10-09T20:31:04.114Z,11.26
2017-10-09T20:36:04.078Z,11.26
2017-10-09T20:41:04.263Z,11.26
2017-10-09T20:46:04.203Z,11.26
2017-10-09T20:51:04.229Z,11.26
2017-10-09T20:56:03.899Z,11.24
2017-10-09T21:01:03.640Z,11.24
2017-10-09T21:06:03.446Z,11.26
2017-10-09T21:11:03.611Z,11.28
2017-10-09T21:16:03.467Z,11.28
2017-10-09T21:21:04.371Z,11.28
2017-10-09T21:26:04.153Z,11.28
2017-10-09T21:31:03.902Z,11.28
2017-10-09T21:36:03.711Z,11.31
2017-10-09T21:41:03.887Z,11.19
2017-10-09T21:46:03.681Z,11.19
2017-10-09T21:51:03.992Z,11.21
2017-10-09T21:56:03.575Z,11.35
2017-10-09T22:01:04.272Z,11.21
2017-10-09T22:06:04.114Z,11.24
2017-10-09T22:11:04.321Z,11.38
2017-10-09T22:16:05.669Z,11.24
2017-10-09T22:21:04.309Z,11.24
2017-10-09T22:26:04.586Z,11.24
2017-10-09T22:31:04.582Z,11.24
2017-10-09T22:36:12.050Z,11.24
2017-10-09T22:41:03.987Z,11.24
2017-10-09T22:46:04.462Z,11.26
2017-10-09T22:51:04.160Z,11.24
2017-10-09T22:56:04.017Z,11.24
2017-10-09T23:01:03.988Z,11.24
2017-10-09T23:06:03.814Z,11.24
2017-10-09T23:11:05.026Z,11.24
2017-10-09T23:16:03.675Z,11.24
2017-10-09T23:21:03.560Z,11.14
2017-10-09T23:26:04.324Z,11.26
2017-10-09T23:31:04.096Z,11.24
2017-10-09T23:36:03.850Z,11.14
2017-10-09T23:41:04.091Z,11.14
2017-10-09T23:46:03.961Z,11.14
2017-10-09T23:51:03.733Z,11.14
2017-10-09T23:56:03.467Z,11.14
